Time;durP1;ratioP1;P1;durP2;ratioP2;P2;SDS_P1;SDS_P2;PMS_P1;PMS_P2;Temp;Humidity;BMP_temperature;BMP_pressure;BME280_temperature;BME280_humidity;BME280_pressure;Samples;Min_cycle;Max_cycle;Signal;HPM_P1;HPM_P2
2023/09/15 00:00:47;;;;;;;;;;;20.60;77.50;;;20.84;48.11;98937.66;4945893;28;118853;-87
2023/09/15 00:03:13;;;;;;;;;;;20.60;77.60;;;20.83;47.99;98936.06;4939886;28;124367;-88
2023/09/15 00:05:39;;;;;;;;;;;20.60;77.80;;;20.80;48.46;98934.81;4943870;28;124742;-88
2023/09/15 00:08:06;;;;;;;;;;;20.60;77.90;;;20.79;48.31;98932.38;4943802;28;119752;-87
2023/09/15 00:10:39;;;;;;;;;;;20.50;77.90;;;20.78;48.36;98933.56;4946528;28;119990;-88
2023/09/15 00:13:05;;;;;;;;;;;20.60;78.20;;;20.75;48.51;98937.94;4950309;28;124677;-88
2023/09/15 00:15:32;;;;;;;;;;;20.50;78.10;;;20.72;48.04;98935.91;4948350;28;124195;-88
2023/09/15 00:17:59;;;;;;;;;;;20.50;78.10;;;20.70;48.29;98932.66;4933976;28;119580;-88
2023/09/15 00:20:25;;;;;;;;;;;20.50;78.30;;;20.68;48.65;98935.03;4935286;28;119225;-87
2023/09/15 00:22:53;;;;;;;;;;;20.50;78.40;;;20.66;48.33;98938.22;4948533;28;124779;-87
2023/09/15 00:25:26;;;;;;;;;;;20.40;78.50;;;20.65;48.49;98930.16;4938262;28;123337;-87
2023/09/15 00:27:55;;;;;;;;;;;20.40;78.60;;;20.61;48.51;98930.13;4933859;28;119637;-88
2023/09/15 00:30:22;;;;;;;;;;;20.40;78.70;;;20.57;48.35;98929.22;4933471;28;117513;-87
2023/09/15 00:32:52;;;;;;;;;;;20.40;78.70;;;20.55;48.72;98919.56;4942777;28;124209;-87
2023/09/15 00:35:21;;;;;;;;;;;20.30;78.80;;;20.51;48.64;98917.47;4935894;28;124146;-87
2023/09/15 00:37:49;;;;;;;;;;;20.30;78.90;;;20.49;48.68;98928.28;4937380;28;119834;-88
2023/09/15 00:40:17;;;;;;;;;;;20.30;79.10;;;20.48;48.67;98925.84;4933177;28;117506;-88
2023/09/15 00:42:47;;;;;;;;;;;20.30;79.20;;;20.47;48.86;98929.84;4942610;28;124788;-87
2023/09/15 00:45:15;;;;;;;;;;;20.30;79.30;;;20.44;48.92;98927.78;4946975;28;124294;-87
2023/09/15 00:47:49;;;;;;;;;;;20.20;79.40;;;20.42;48.97;98925.38;4944316;28;118528;-89
2023/09/15 00:50:17;;;;;;;;;;;20.20;79.50;;;20.40;48.90;98926.94;4936289;28;118748;-87
2023/09/15 00:52:49;;;;;;;;;;;20.20;79.60;;;20.37;48.94;98924.88;4936399;28;123408;-89
2023/09/15 00:55:19;;;;;;;;;;;20.20;79.60;;;20.34;49.31;98914.38;4947651;28;124121;-88
2023/09/15 00:57:51;;;;;;;;;;;20.10;79.60;;;20.32;49.09;98913.97;4929822;28;120345;-87
2023/09/15 01:00:19;;;;;;;;;;;20.10;79.80;;;20.30;49.30;98920.75;4966224;28;119689;-89
2023/09/15 01:02:46;;;;;;;;;;;20.10;79.90;;;20.26;49.30;98916.28;4951173;28;124245;-87
2023/09/15 01:05:23;;;;;;;;;;;20.10;80.00;;;20.24;49.27;98919.44;4929257;28;124177;-87
2023/09/15 01:07:53;;;;;;;;;;;20.00;80.00;;;20.21;49.42;98917.38;4950912;28;119115;-88
2023/09/15 01:10:23;;;;;;;;;;;20.00;80.20;;;20.20;49.57;98910.16;4949046;28;118887;-88
2023/09/15 01:12:50;;;;;;;;;;;20.00;80.30;;;20.17;49.42;98910.88;4926866;28;124486;-88
2023/09/15 01:15:17;;;;;;;;;;;20.00;80.40;;;20.14;49.34;98917.25;4961557;28;124456;-88
2023/09/15 01:18:08;;;;;;;;;;;19.90;80.40;;;20.10;49.44;98916.41;4946307;28;119651;-88
2023/09/15 01:20:37;;;;;;;;;;;19.90;80.50;;;20.09;49.53;98909.13;4944865;28;118641;-87
2023/09/15 01:23:55;;;;;;;;;;;19.90;80.70;;;20.03;49.78;98905.03;4943078;28;124180;-89
2023/09/15 01:26:36;;;;;;;;;;;19.80;80.70;;;20.00;49.65;98898.19;4919385;28;124079;-90
2023/09/15 01:29:18;;;;;;;;;;;19.80;80.90;;;19.98;49.81;98892.13;4919646;28;119218;-90
2023/09/15 01:31:46;;;;;;;;;;;19.80;81.00;;;19.98;49.81;98903.34;4947193;28;118828;-89
2023/09/15 01:34:16;;;;;;;;;;;19.80;81.10;;;19.97;49.62;98895.31;4929041;28;125395;-89
2023/09/15 01:36:45;;;;;;;;;;;21.00;82.40;;;19.95;50.17;98900.47;4936547;28;123157;-91
2023/09/15 01:39:11;;;;;;;;;;;19.70;81.60;;;19.91;50.34;98902.41;4932908;28;119881;-89
2023/09/15 01:41:38;;;;;;;;;;;19.70;81.80;;;19.90;50.33;98897.97;4947365;28;119245;-89
2023/09/15 01:44:04;;;;;;;;;;;19.70;82.10;;;19.87;50.31;98902.34;4933188;28;123847;-89
2023/09/15 01:46:30;;;;;;;;;;;19.70;82.30;;;19.88;50.64;98905.94;4948192;28;124359;-90
2023/09/15 01:48:57;;;;;;;;;;;19.60;82.40;;;19.86;50.91;98907.13;4949269;28;121340;-89
2023/09/15 01:51:25;;;;;;;;;;;19.60;82.70;;;19.79;51.14;98900.59;4929441;28;120163;-90
2023/09/15 01:53:52;;;;;;;;;;;19.60;83.10;;;19.73;51.04;98902.09;4945798;28;124339;-89
2023/09/15 01:56:20;;;;;;;;;;;19.60;83.30;;;19.69;51.43;98904.00;4929679;28;123943;-90
2023/09/15 01:58:47;;;;;;;;;;;19.50;83.30;;;19.67;51.16;98893.16;4916691;28;119674;-90
2023/09/15 02:01:13;;;;;;;;;;;19.50;83.50;;;19.67;51.51;98898.78;4927399;28;118433;-90
2023/09/15 02:03:39;;;;;;;;;;;19.50;83.70;;;19.65;51.31;98889.88;4944215;28;124363;-88
2023/09/15 02:06:05;;;;;;;;;;;19.40;83.70;;;19.62;51.61;98901.84;4942867;28;123292;-90
2023/09/15 02:08:32;;;;;;;;;;;19.40;83.90;;;19.61;51.36;98894.59;4938484;28;119552;-89
2023/09/15 02:10:59;;;;;;;;;;;19.40;84.00;;;19.61;51.60;98900.19;4945770;28;118997;-89
2023/09/15 02:13:25;;;;;;;;;;;19.40;84.20;;;19.58;51.51;98900.94;4928567;28;124212;-90
2023/09/15 02:15:53;;;;;;;;;;;19.40;84.40;;;19.55;51.98;98907.28;4931169;28;123764;-90
2023/09/15 02:18:20;;;;;;;;;;;19.30;84.70;;;19.47;52.32;98908.34;4946683;28;119507;-90
2023/09/15 02:20:54;;;;;;;;;;;19.30;85.10;;;19.39;52.31;98905.38;4936840;28;119296;-88
2023/09/15 02:23:24;;;;;;;;;;;19.20;85.10;;;19.33;52.28;98906.84;4947422;28;124058;-89
2023/09/15 02:25:54;;;;;;;;;;;19.20;85.40;;;19.30;52.62;98918.00;4935548;28;123830;-89
2023/09/15 02:28:20;;;;;;;;;;;19.20;85.60;;;19.28;52.63;98909.16;4925876;28;119444;-90
2023/09/15 02:30:46;;;;;;;;;;;19.10;85.70;;;19.27;52.78;98913.94;4940812;28;118720;-88
2023/09/15 02:33:13;;;;;;;;;;;19.10;85.90;;;19.27;52.73;98910.34;4923234;28;124380;-90
2023/09/15 02:35:40;;;;;;;;;;;19.10;86.10;;;19.26;52.65;98912.31;4928474;28;123779;-89
2023/09/15 02:38:06;;;;;;;;;;;19.10;86.30;;;19.28;52.75;98914.75;4935622;28;118907;-89
2023/09/15 02:40:35;;;;;;;;;;;19.10;86.40;;;19.26;52.94;98905.91;4940592;28;119800;-90
2023/09/15 02:43:02;;;;;;;;;;;19.10;86.60;;;19.27;52.72;98907.53;4939962;28;124376;-90
2023/09/15 02:45:28;;;;;;;;;;;19.00;86.60;;;19.27;52.70;98913.13;4941088;28;124592;-89
2023/09/15 02:47:54;;;;;;;;;;;19.10;86.80;;;19.27;52.55;98907.53;4947352;28;119426;-89
2023/09/15 02:50:21;;;;;;;;;;;19.00;86.90;;;19.27;52.90;98911.16;4938275;28;118541;-89
2023/09/15 02:52:47;;;;;;;;;;;19.00;86.90;;;19.26;52.53;98912.31;4945019;28;125137;-89
2023/09/15 02:55:13;;;;;;;;;;;19.00;87.00;;;19.25;52.82;98913.50;4943338;28;123958;-89
2023/09/15 02:57:40;;;;;;;;;;;19.00;87.10;;;19.24;52.62;98911.06;4939552;28;119366;-90
2023/09/15 03:00:08;;;;;;;;;;;19.00;87.10;;;19.24;52.59;98913.88;4942038;28;117757;-90
2023/09/15 03:02:37;;;;;;;;;;;19.00;87.20;;;19.20;53.01;98908.19;4930367;28;124822;-89
2023/09/15 03:05:03;;;;;;;;;;;19.00;87.20;;;19.18;52.71;98905.75;4933389;28;123968;-90
2023/09/15 03:07:31;;;;;;;;;;;18.90;87.30;;;19.17;52.93;98906.13;4931138;28;119195;-89
2023/09/15 03:09:58;;;;;;;;;;;18.90;87.30;;;19.16;53.08;98902.50;4929660;28;119398;-89
2023/09/15 03:12:24;;;;;;;;;;;18.90;87.50;;;19.15;52.87;98905.66;4936067;28;124564;-89
2023/09/15 03:14:50;;;;;;;;;;;18.90;88.20;;;19.13;52.74;98905.25;4929927;28;124091;-90
2023/09/15 03:17:21;;;;;;;;;;;18.90;87.60;;;19.13;52.81;98902.44;4937019;28;119315;-89
2023/09/15 03:19:50;;;;;;;;;;;18.90;88.30;;;19.11;52.93;98904.78;4927371;28;118731;-89
2023/09/15 03:22:16;;;;;;;;;;;18.90;87.70;;;19.09;52.82;98907.16;4927630;28;124715;-89
2023/09/15 03:24:42;;;;;;;;;;;18.80;87.70;;;19.07;52.91;98909.50;4930575;28;123962;-91
2023/09/15 03:27:09;;;;;;;;;;;18.80;87.90;;;19.05;53.04;98911.84;4925991;28;120360;-89
2023/09/15 03:29:35;;;;;;;;;;;18.80;88.00;;;19.03;52.98;98908.63;4937882;28;119942;-89
2023/09/15 03:32:02;;;;;;;;;;;18.80;88.10;;;19.03;53.30;98911.41;4924879;28;124389;-89
2023/09/15 03:34:28;;;;;;;;;;;18.80;88.20;;;19.02;53.09;98909.78;4930040;28;124761;-88
2023/09/15 03:36:55;;;;;;;;;;;18.70;88.20;;;19.00;53.14;98909.34;4925727;28;119143;-89
2023/09/15 03:39:22;;;;;;;;;;;18.70;88.30;;;18.98;53.29;98906.91;4933909;28;118619;-89
2023/09/15 03:41:48;;;;;;;;;;;18.70;88.30;;;18.95;53.33;98908.44;4919589;28;124668;-88
2023/09/15 03:44:14;;;;;;;;;;;18.70;88.40;;;18.92;53.37;98906.38;4925267;28;121938;-85
2023/09/15 03:46:40;;;;;;;;;;;18.70;88.60;;;18.81;53.50;98901.72;4932812;28;119546;-89
2023/09/15 03:49:06;;;;;;;;;;;18.60;88.70;;;18.67;53.79;98896.56;4927175;28;117562;-89
2023/09/15 03:51:33;;;;;;;;;;;18.50;88.60;;;18.61;53.79;98898.03;4931609;28;124166;-90
2023/09/15 03:53:59;;;;;;;;;;;18.40;88.70;;;18.59;54.07;98895.59;4929542;28;122903;-89
2023/09/15 03:56:25;;;;;;;;;;;18.50;89.00;;;18.59;54.09;98901.19;4920402;28;119959;-87
2023/09/15 03:58:55;;;;;;;;;;;18.40;89.10;;;18.60;53.96;98900.03;4928783;28;117913;-85
2023/09/15 04:01:23;;;;;;;;;;;18.40;89.20;;;18.60;53.87;98896.41;4939892;28;123989;-89
2023/09/15 04:03:49;;;;;;;;;;;18.40;89.30;;;18.59;53.95;98891.97;4933158;28;123310;-91
2023/09/15 04:06:16;;;;;;;;;;;18.40;89.40;;;18.57;53.98;98889.56;4931654;28;120980;-89
2023/09/15 04:08:45;;;;;;;;;;;18.40;89.50;;;18.55;54.15;98887.09;4926789;28;118874;-90
2023/09/15 04:11:11;;;;;;;;;;;18.30;89.60;;;18.57;54.14;98897.16;4944688;28;123353;-90
2023/09/15 04:13:38;;;;;;;;;;;18.30;89.70;;;18.57;54.31;98892.34;4935529;28;124244;-91
2023/09/15 04:16:04;;;;;;;;;;;18.30;89.80;;;18.55;54.34;98891.91;4927021;28;120375;-90
2023/09/15 04:18:33;;;;;;;;;;;18.40;90.00;;;18.52;54.62;98887.84;4929622;28;120299;-91
2023/09/15 04:20:59;;;;;;;;;;;18.30;90.10;;;18.49;54.46;98894.16;4937178;28;124202;-90
2023/09/15 04:23:25;;;;;;;;;;;18.30;90.00;;;18.45;54.52;98890.44;4940523;28;124488;-90
2023/09/15 04:25:52;;;;;;;;;;;18.30;90.10;;;18.47;54.61;98884.50;4960357;28;119405;-90
2023/09/15 04:28:20;;;;;;;;;;;18.30;90.20;;;18.47;54.93;98882.50;4934462;28;118546;-90
2023/09/15 04:30:47;;;;;;;;;;;18.20;90.20;;;18.47;54.71;98876.91;4948121;28;124782;-89
2023/09/15 04:33:14;;;;;;;;;;;18.20;90.30;;;18.50;54.80;98880.97;4930347;28;124536;-91
2023/09/15 04:35:40;;;;;;;;;;;18.30;90.30;;;18.50;54.81;98886.56;4904875;28;117936;-89
2023/09/15 04:38:10;;;;;;;;;;;18.20;90.40;;;18.50;54.58;98887.38;4919116;28;118055;-90
2023/09/15 04:40:38;;;;;;;;;;;18.20;90.40;;;18.49;54.73;98880.19;4940286;28;124148;-90
2023/09/15 04:43:04;;;;;;;;;;;18.20;90.50;;;18.48;54.87;98872.97;4930463;28;124948;-89
2023/09/15 04:45:31;;;;;;;;;;;18.20;90.50;;;18.48;54.85;98878.56;4931164;28;118979;-89
2023/09/15 04:47:57;;;;;;;;;;;18.20;90.50;;;18.47;54.90;98882.50;4937644;28;118570;-89
2023/09/15 04:50:23;;;;;;;;;;;18.20;90.60;;;18.45;55.21;98875.66;4928638;28;124285;-90
2023/09/15 04:52:50;;;;;;;;;;;18.20;90.70;;;18.44;55.18;98886.03;4929003;28;124096;-90
2023/09/15 04:55:16;;;;;;;;;;;18.20;90.70;;;18.42;55.28;98879.19;4928912;28;120112;-91
2023/09/15 04:57:42;;;;;;;;;;;18.20;90.80;;;18.41;55.45;98878.38;4934554;28;118536;-90
2023/09/15 05:00:13;;;;;;;;;;;18.20;91.00;;;18.43;55.72;98878.84;4943155;28;124047;-90
2023/09/15 05:02:44;;;;;;;;;;;18.20;91.10;;;18.46;55.90;98880.09;4930620;28;124009;-88
2023/09/15 05:05:11;;;;;;;;;;;18.20;91.30;;;18.48;55.87;98884.16;4930131;28;120167;-87
2023/09/15 05:07:37;;;;;;;;;;;18.20;91.30;;;18.51;55.96;98882.59;4942279;28;120373;-86
2023/09/15 05:10:04;;;;;;;;;;;18.20;91.50;;;18.57;56.04;98872.75;4930539;28;124371;-86
2023/09/15 05:12:30;;;;;;;;;;;18.20;91.60;;;18.59;55.88;98872.38;4944798;28;124022;-87
2023/09/15 05:14:56;;;;;;;;;;;18.20;91.60;;;18.52;55.77;98879.44;4922035;28;119184;-86
2023/09/15 05:17:23;;;;;;;;;;;18.20;91.50;;;18.49;55.75;98882.97;4948482;28;118788;-86
2023/09/15 05:19:51;;;;;;;;;;;18.20;91.60;;;18.48;55.82;98886.97;4949707;28;123723;-88
2023/09/15 05:22:17;;;;;;;;;;;18.20;91.50;;;18.46;55.76;98894.09;4948590;28;124556;-87
2023/09/15 05:24:43;;;;;;;;;;;18.20;91.40;;;18.42;55.71;98888.38;4939419;28;118836;-87
2023/09/15 05:27:10;;;;;;;;;;;18.20;91.40;;;18.41;55.77;98889.56;4945335;28;118717;-88
2023/09/15 05:29:36;;;;;;;;;;;18.20;91.40;;;18.42;55.64;98904.38;4947446;28;124273;-87
2023/09/15 05:32:05;;;;;;;;;;;18.20;91.40;;;18.39;55.49;98891.09;4947767;28;124139;-87
2023/09/15 05:34:31;;;;;;;;;;;18.10;91.60;;;18.38;55.71;98895.91;4941553;28;119159;-86
2023/09/15 05:36:58;;;;;;;;;;;18.10;91.30;;;18.41;55.54;98894.38;4926392;28;117925;-86
2023/09/15 05:39:24;;;;;;;;;;;18.20;91.40;;;18.41;55.56;98895.16;4910217;28;124265;-87
2023/09/15 05:41:50;;;;;;;;;;;18.10;91.30;;;18.44;55.54;98894.44;4955275;28;125087;-88
2023/09/15 05:44:16;;;;;;;;;;;18.20;91.40;;;18.44;55.44;98899.22;4946044;28;120153;-88
2023/09/15 05:46:43;;;;;;;;;;;18.20;91.30;;;18.45;55.25;98892.44;4945563;28;118073;-87
2023/09/15 05:49:10;;;;;;;;;;;18.20;91.20;;;18.47;55.34;98898.50;4932880;28;123523;-92
2023/09/15 05:51:37;;;;;;;;;;;18.20;91.20;;;18.48;55.31;98900.09;4941324;28;124018;-91
2023/09/15 05:54:03;;;;;;;;;;;18.20;91.10;;;18.49;55.21;98894.16;4942622;28;119589;-91
2023/09/15 05:56:29;;;;;;;;;;;18.20;91.10;;;18.50;55.13;98898.56;4939791;28;119444;-91
2023/09/15 05:58:58;;;;;;;;;;;18.20;91.40;;;18.52;55.07;98896.22;4915127;28;124029;-91
2023/09/15 06:01:24;;;;;;;;;;;18.20;91.20;;;18.58;55.08;98901.56;4947937;28;123336;-92
2023/09/15 06:03:51;;;;;;;;;;;18.30;91.20;;;18.63;54.85;98899.28;4931852;28;119509;-92
2023/09/15 06:06:17;;;;;;;;;;;18.30;91.20;;;18.68;54.76;98903.81;4925582;28;117480;-90
2023/09/15 06:08:43;;;;;;;;;;;18.30;91.10;;;18.69;54.74;98900.63;4938846;28;124303;-90
2023/09/15 06:11:10;;;;;;;;;;;18.40;91.10;;;18.72;54.72;98910.28;4944722;28;123730;-91
2023/09/15 06:13:39;;;;;;;;;;;18.40;91.10;;;18.74;54.92;98908.78;4946212;28;119077;-92
2023/09/15 06:16:05;;;;;;;;;;;18.40;91.10;;;18.81;54.78;98910.94;4943783;28;118691;-89
2023/09/15 06:18:31;;;;;;;;;;;18.40;91.10;;;18.88;54.46;98910.28;4946776;28;124762;-91
2023/09/15 06:20:58;;;;;;;;;;;18.50;91.20;;;18.94;54.47;98906.84;4944690;28;124395;-91
2023/09/15 06:23:28;;;;;;;;;;;18.50;91.10;;;19.01;54.32;98905.38;4935134;28;119288;-91
2023/09/15 06:25:54;;;;;;;;;;;18.60;91.10;;;19.02;54.17;98901.38;4962304;28;119007;-90
2023/09/15 06:28:23;;;;;;;;;;;18.60;91.00;;;19.04;53.92;98907.44;4946662;28;124683;-90
2023/09/15 06:30:50;;;;;;;;;;;18.60;90.90;;;19.09;54.21;98907.16;4927422;28;123169;-89
2023/09/15 06:33:16;;;;;;;;;;;18.70;90.90;;;19.15;53.84;98914.06;4940579;28;119316;-91
2023/09/15 06:35:43;;;;;;;;;;;18.70;90.90;;;19.22;53.67;98905.03;4945517;28;118775;-90
2023/09/15 06:38:10;;;;;;;;;;;18.80;90.90;;;19.27;53.69;98902.75;4924184;28;123057;-90
2023/09/15 06:40:36;;;;;;;;;;;18.90;90.90;;;19.30;53.58;98904.00;4928902;28;122468;-90
2023/09/15 06:43:05;;;;;;;;;;;18.90;90.80;;;19.32;53.54;98916.47;4922288;28;119402;-90
2023/09/15 06:45:31;;;;;;;;;;;18.90;90.80;;;19.34;53.40;98908.50;4958915;28;119360;-90
2023/09/15 06:47:59;;;;;;;;;;;18.90;90.70;;;19.39;53.29;98905.38;4943677;28;123229;-90
2023/09/15 06:50:26;;;;;;;;;;;19.00;90.70;;;19.48;53.28;98901.53;4945848;28;124301;-90
2023/09/15 06:52:53;;;;;;;;;;;19.00;90.70;;;19.56;53.06;98900.53;4962905;28;118819;-91
2023/09/15 06:55:19;;;;;;;;;;;19.10;90.70;;;19.59;52.77;98894.19;4927729;28;118657;-90
2023/09/15 06:57:45;;;;;;;;;;;19.20;90.60;;;19.64;53.03;98891.06;4937665;28;124657;-91
2023/09/15 07:00:12;;;;;;;;;;;19.20;90.50;;;19.71;52.90;98888.41;4941055;28;124345;-89
2023/09/15 07:02:43;;;;;;;;;;;19.20;90.50;;;19.78;53.01;98888.56;4945725;28;120855;-90
2023/09/15 07:05:11;;;;;;;;;;;19.30;90.50;;;19.80;52.59;98891.81;4936006;28;118914;-91
2023/09/15 07:07:38;;;;;;;;;;;20.70;91.00;;;19.76;52.60;98887.31;4931427;28;123226;-90
2023/09/15 07:10:05;;;;;;;;;;;19.40;90.40;;;19.76;52.63;98888.13;4911102;28;123553;-89
2023/09/15 07:12:31;;;;;;;;;;;19.40;90.40;;;19.79;52.89;98890.19;4930782;28;119344;-90
2023/09/15 07:14:58;;;;;;;;;;;19.30;90.40;;;19.77;52.69;98895.38;4942503;28;118998;-91
2023/09/15 07:17:24;;;;;;;;;;;19.40;90.40;;;19.77;53.02;98888.94;4925491;28;124471;-90
2023/09/15 07:19:53;;;;;;;;;;;19.40;90.50;;;19.77;52.88;98881.34;4942560;28;123632;-90
2023/09/15 07:22:19;;;;;;;;;;;19.30;90.60;;;19.78;52.88;98877.34;4927343;28;119033;-90
2023/09/15 07:24:45;;;;;;;;;;;19.30;90.60;;;19.78;53.39;98888.56;4934160;28;119477;-89
2023/09/15 07:27:11;;;;;;;;;;;19.40;90.70;;;19.82;53.11;98895.03;4916984;28;123771;-89
2023/09/15 07:29:38;;;;;;;;;;;19.40;90.70;;;19.88;53.13;98897.53;4945146;28;123853;-89
2023/09/15 07:32:05;;;;;;;;;;;19.40;90.80;;;19.93;53.21;98883.22;4958843;28;120863;-89
2023/09/15 07:34:31;;;;;;;;;;;19.40;90.80;;;19.98;52.90;98886.50;4951894;28;119625;-90
2023/09/15 07:36:59;;;;;;;;;;;19.50;90.80;;;20.03;52.99;98891.00;4936834;28;124463;-90
2023/09/15 07:39:29;;;;;;;;;;;19.50;90.80;;;20.07;52.74;98894.69;4945507;28;124068;-90
2023/09/15 07:41:55;;;;;;;;;;;19.50;90.80;;;20.12;52.81;98888.75;4926910;28;117334;-89
2023/09/15 07:44:24;;;;;;;;;;;18.90;90.50;;;20.21;52.85;98883.72;4933278;28;118807;-89
2023/09/15 07:46:53;;;;;;;;;;;19.70;90.80;;;20.29;52.58;98882.66;4946445;28;123076;-90
2023/09/15 07:49:19;;;;;;;;;;;19.70;90.70;;;20.34;52.88;98878.72;4926466;28;124843;-89
2023/09/15 07:51:47;;;;;;;;;;;19.70;90.70;;;20.39;52.44;98872.78;4927436;28;119350;-88
2023/09/15 07:54:15;;;;;;;;;;;19.80;90.80;;;20.41;52.56;98875.22;4934514;28;119031;-90
2023/09/15 07:56:42;;;;;;;;;;;19.90;90.80;;;20.44;52.44;98882.88;4924224;28;124267;-89
2023/09/15 07:59:08;;;;;;;;;;;19.90;90.80;;;20.47;52.65;98868.91;4928909;28;124219;-88
2023/09/15 08:01:34;;;;;;;;;;;20.00;90.80;;;20.47;52.91;98877.34;4930292;28;120981;-90
2023/09/15 08:04:00;;;;;;;;;;;19.90;90.70;;;20.49;52.63;98874.13;4936706;28;119452;-90
2023/09/15 08:06:27;;;;;;;;;;;20.00;90.80;;;20.52;53.01;98871.41;4950012;28;124117;-93
2023/09/15 08:08:56;;;;;;;;;;;20.00;90.80;;;20.58;52.48;98871.91;4928546;28;124176;-90
2023/09/15 08:11:22;;;;;;;;;;;20.00;90.80;;;20.64;52.81;98878.81;4934226;28;119418;-89
2023/09/15 08:13:48;;;;;;;;;;;20.10;90.80;;;20.69;52.67;98878.50;4953808;28;119490;-89
2023/09/15 08:16:14;;;;;;;;;;;20.10;90.80;;;20.71;52.58;98878.94;4940589;28;124520;-90
2023/09/15 08:18:41;;;;;;;;;;;20.10;90.80;;;20.71;52.71;98878.09;4946903;28;124053;-89
2023/09/15 08:21:07;;;;;;;;;;;20.20;90.80;;;20.75;52.68;98878.97;4947741;28;120458;-89
2023/09/15 08:23:35;;;;;;;;;;;20.20;90.80;;;20.80;52.57;98869.44;4950576;28;120064;-89
2023/09/15 08:26:02;;;;;;;;;;;20.30;90.80;;;20.86;52.17;98865.09;4958642;28;124573;-90
2023/09/15 08:28:28;;;;;;;;;;;20.30;90.70;;;20.93;52.07;98870.81;4948361;28;124591;-89
2023/09/15 08:30:58;;;;;;;;;;;20.40;90.70;;;21.04;52.52;98868.97;4944870;28;119276;-89
2023/09/15 08:33:24;;;;;;;;;;;20.50;91.00;;;21.12;51.95;98865.06;4937341;28;118773;-90
2023/09/15 08:35:51;;;;;;;;;;;20.60;90.60;;;21.17;51.91;98867.53;4960169;28;123245;-89
2023/09/15 08:38:17;;;;;;;;;;;20.60;90.60;;;21.19;52.02;98865.13;4956030;28;125841;-89
2023/09/15 08:40:53;;;;;;;;;;;20.60;90.50;;;21.21;51.84;98866.75;4944370;28;119594;-89
2023/09/15 08:43:23;;;;;;;;;;;20.70;90.50;;;21.23;51.70;98858.75;4929185;28;118752;-90
2023/09/15 08:45:49;;;;;;;;;;;20.70;90.50;;;21.29;51.66;98857.22;4912610;28;124221;-90
2023/09/15 08:48:18;;;;;;;;;;;20.70;90.50;;;21.28;51.91;98856.41;4954725;28;123884;-89
2023/09/15 08:50:51;;;;;;;;;;;20.70;90.50;;;21.33;51.61;98853.28;4930643;28;119668;-89
2023/09/15 08:53:17;;;;;;;;;;;20.80;90.60;;;21.35;51.89;98852.88;4948542;28;118459;-90
2023/09/15 08:55:44;;;;;;;;;;;20.80;90.60;;;21.38;51.83;98860.56;4934683;28;124080;-89
2023/09/15 08:58:14;;;;;;;;;;;20.90;90.60;;;21.43;51.58;98848.19;4947035;28;124598;-87
2023/09/15 09:00:42;;;;;;;;;;;20.90;90.50;;;21.50;51.83;98862.31;4926902;28;120221;-89
2023/09/15 09:03:12;;;;;;;;;;;21.00;90.50;;;21.56;51.77;98855.97;4947933;28;119343;-90
2023/09/15 09:05:47;;;;;;;;;;;21.10;90.50;;;21.64;51.68;98851.22;4930048;28;124072;-89
2023/09/15 09:08:13;;;;;;;;;;;21.20;90.40;;;21.69;51.49;98845.25;4929996;28;124057;-88
2023/09/15 09:10:40;;;;;;;;;;;21.20;90.40;;;21.74;51.61;98841.28;4959005;28;119588;-89
2023/09/15 09:13:06;;;;;;;;;;;21.20;90.40;;;21.74;51.54;98839.28;4919254;28;119968;-89
2023/09/15 09:15:35;;;;;;;;;;;21.30;90.40;;;21.72;51.13;98838.06;4917081;28;123850;-89
2023/09/15 09:18:03;;;;;;;;;;;21.40;90.30;;;21.75;51.26;98834.47;4960772;28;124831;-89
2023/09/15 09:20:30;;;;;;;;;;;21.30;90.30;;;21.81;51.63;98839.34;4934468;28;119476;-90
2023/09/15 09:22:59;;;;;;;;;;;21.40;90.40;;;21.86;51.18;98837.38;4942174;28;122318;-89
2023/09/15 09:25:29;;;;;;;;;;;21.40;90.30;;;21.91;51.61;98820.94;4931238;28;123863;-89
2023/09/15 09:27:56;;;;;;;;;;;21.40;90.40;;;21.96;51.37;98826.22;4940576;28;123064;-90
2023/09/15 09:30:26;;;;;;;;;;;21.50;90.40;;;22.03;51.42;98823.47;4911716;28;120385;-88
2023/09/15 09:32:52;;;;;;;;;;;21.50;90.40;;;22.09;51.66;98826.75;4944589;28;118925;-88
2023/09/15 09:35:18;;;;;;;;;;;21.60;90.50;;;22.16;51.17;98820.34;4944232;28;124598;-87
2023/09/15 09:37:47;;;;;;;;;;;21.70;90.40;;;22.21;51.41;98818.00;4946405;28;124504;-88
2023/09/15 09:40:13;;;;;;;;;;;21.80;90.40;;;22.33;51.11;98816.09;4945597;28;119746;-89
2023/09/15 09:42:41;;;;;;;;;;;21.80;90.30;;;22.43;51.23;98824.63;4943111;28;118752;-89
2023/09/15 09:45:08;;;;;;;;;;;21.90;90.40;;;22.54;50.83;98818.25;4942720;28;123595;-90
2023/09/15 09:47:34;;;;;;;;;;;22.00;90.40;;;22.62;50.73;98811.44;4910905;28;122883;-88
2023/09/15 09:50:05;;;;;;;;;;;22.00;90.30;;;22.69;50.80;98811.50;4929342;28;118945;-89
2023/09/15 09:52:33;;;;;;;;;;;22.20;90.30;;;22.74;50.45;98810.31;4933627;28;118472;-88
2023/09/15 09:55:06;;;;;;;;;;;22.20;90.20;;;22.75;50.24;98797.84;4929344;28;125230;-87
2023/09/15 09:57:33;;;;;;;;;;;22.30;89.90;;;22.79;50.21;98799.50;4938542;28;123960;-88
2023/09/15 10:00:03;;;;;;;;;;;22.40;90.00;;;22.84;50.45;98807.56;4919971;28;120532;-90
2023/09/15 10:02:30;;;;;;;;;;;22.40;90.00;;;22.89;50.40;98798.75;4930848;28;120321;-88
2023/09/15 10:04:56;;;;;;;;;;;22.40;89.90;;;22.89;50.28;98790.28;4944430;28;123289;-89
2023/09/15 10:07:22;;;;;;;;;;;22.40;89.60;;;22.93;50.25;98796.72;4920019;28;123843;-90
2023/09/15 10:09:51;;;;;;;;;;;22.50;89.70;;;22.94;50.27;98789.91;4931066;28;119996;-88
2023/09/15 10:12:17;;;;;;;;;;;22.50;89.60;;;22.99;50.14;98782.28;4929551;28;119064;-88
2023/09/15 10:14:44;;;;;;;;;;;22.60;89.50;;;23.07;50.33;98783.94;4928999;28;124620;-88
2023/09/15 10:17:10;;;;;;;;;;;22.60;89.80;;;23.16;49.89;98790.03;4926659;28;123640;-87
2023/09/15 10:19:37;;;;;;;;;;;22.70;89.70;;;23.26;49.94;98791.25;4932065;28;120241;-90
2023/09/15 10:22:04;;;;;;;;;;;22.80;89.50;;;23.33;49.45;98777.19;4928332;28;118756;-89
2023/09/15 10:24:33;;;;;;;;;;;22.90;88.90;;;23.35;49.56;98767.13;4929690;28;124274;-88
2023/09/15 10:26:59;;;;;;;;;;;22.90;88.80;;;23.44;49.22;98765.91;4898023;28;122906;-88
2023/09/15 10:29:31;;;;;;;;;;;23.00;88.90;;;23.52;49.06;98753.44;4899919;28;119577;-87
2023/09/15 10:32:05;;;;;;;;;;;23.00;88.80;;;23.61;48.71;98767.94;4902890;28;118749;-88
2023/09/15 10:34:32;;;;;;;;;;;23.10;88.30;;;23.68;48.80;98767.97;4888411;28;123358;-87
2023/09/15 10:37:02;;;;;;;;;;;23.20;88.30;;;23.76;48.83;98771.63;4907680;28;123564;-88
2023/09/15 10:39:41;;;;;;;;;;;23.20;88.20;;;23.85;48.78;98765.59;4919350;28;118963;-88
2023/09/15 10:42:13;;;;;;;;;;;23.30;88.20;;;23.96;48.64;98761.53;4924793;28;118578;-89
2023/09/15 10:44:42;;;;;;;;;;;23.40;88.30;;;24.05;48.36;98755.50;4924237;28;125175;-88
2023/09/15 10:47:16;;;;;;;;;;;23.50;87.80;;;24.10;48.09;98745.81;4906799;28;123773;-88
2023/09/15 10:49:52;;;;;;;;;;;23.60;87.30;;;24.17;48.02;98749.44;4911730;28;119844;-88
2023/09/15 10:52:34;;;;;;;;;;;23.10;86.70;;;24.29;47.76;98751.06;4892760;28;119694;-89
2023/09/15 10:55:01;;;;;;;;;;;23.80;87.10;;;24.39;47.46;98744.56;4898513;28;124367;-89
2023/09/15 10:57:28;;;;;;;;;;;23.90;86.80;;;24.44;47.31;98746.19;4898929;28;124203;-88
2023/09/15 10:59:55;;;;;;;;;;;23.90;86.30;;;24.52;47.31;98741.34;4945717;28;118785;-89
2023/09/15 11:02:22;;;;;;;;;;;24.00;86.30;;;24.60;46.85;98735.25;4915679;28;118505;-90
2023/09/15 11:04:51;;;;;;;;;;;24.10;86.00;;;24.72;47.12;98733.19;4962125;28;124330;-88
2023/09/15 11:07:18;;;;;;;;;;;24.20;86.60;;;24.86;46.17;98727.50;4945815;28;122820;-89
2023/09/15 11:09:44;;;;;;;;;;;24.30;85.70;;;25.01;46.43;98728.22;4944813;28;119498;-88
2023/09/15 11:12:16;;;;;;;;;;;24.40;85.50;;;25.13;45.50;98722.91;4936697;28;119025;-89